createdAt,value
2018-04-15T00:00:15.906Z,25.13
2018-04-15T00:02:42.250Z,24.90
2018-04-15T00:05:08.592Z,23.63
2018-04-15T00:07:35.021Z,23.10
2018-04-15T00:10:01.387Z,23.53
2018-04-15T00:12:27.888Z,22.70
2018-04-15T00:14:54.218Z,21.60
2018-04-15T00:17:20.590Z,21.00
2018-04-15T00:19:46.938Z,20.13
2018-04-15T00:22:13.277Z,21.50
2018-04-15T00:24:39.605Z,21.30
2018-04-15T00:27:05.938Z,21.27
2018-04-15T00:29:32.282Z,22.07
2018-04-15T00:31:58.638Z,22.00
2018-04-15T00:34:25.006Z,23.33
2018-04-15T00:36:51.339Z,26.23
2018-04-15T00:39:17.685Z,26.10
2018-04-15T00:41:44.024Z,25.07
2018-04-15T00:44:10.365Z,26.30
2018-04-15T00:46:36.697Z,27.50
2018-04-15T00:49:03.065Z,29.13
2018-04-15T00:51:29.372Z,29.10
2018-04-15T00:54:07.878Z,29.57
2018-04-15T00:56:34.197Z,31.27
2018-04-15T00:59:00.541Z,35.40
2018-04-15T01:01:26.885Z,36.90
2018-04-15T01:03:53.229Z,37.97
2018-04-15T01:06:19.581Z,36.17
2018-04-15T01:08:45.946Z,36.67
2018-04-15T01:11:12.309Z,34.90
2018-04-15T01:13:38.694Z,35.17
2018-04-15T01:16:05.091Z,36.97
2018-04-15T01:18:31.524Z,42.00
2018-04-15T01:20:57.958Z,39.33
2018-04-15T01:23:24.317Z,37.97
2018-04-15T01:25:50.681Z,34.63
2018-04-15T01:28:17.025Z,35.73
2018-04-15T01:30:43.386Z,34.23
2018-04-15T01:33:09.817Z,33.47
2018-04-15T01:35:36.170Z,32.00
2018-04-15T01:38:02.518Z,33.67
2018-04-15T01:40:28.861Z,33.40
2018-04-15T01:42:55.206Z,34.13
2018-04-15T01:45:21.558Z,32.20
2018-04-15T01:47:47.982Z,34.67
2018-04-15T01:50:14.350Z,31.93
2018-04-15T01:52:40.696Z,34.30
2018-04-15T01:55:07.038Z,33.30
2018-04-15T01:57:33.418Z,36.67
2018-04-15T01:59:59.764Z,34.97
2018-04-15T02:02:26.198Z,38.00
2018-04-15T02:04:52.568Z,38.33
2018-04-15T02:07:18.889Z,38.87
2018-04-15T02:09:45.278Z,36.60
2018-04-15T02:12:11.613Z,36.50
2018-04-15T02:14:37.955Z,37.63
2018-04-15T02:17:04.288Z,35.77
2018-04-15T02:19:30.622Z,35.57
2018-04-15T02:21:56.949Z,35.67
2018-04-15T02:24:23.281Z,36.30
2018-04-15T02:26:49.617Z,36.00
2018-04-15T02:29:15.946Z,38.73
2018-04-15T02:31:42.377Z,36.03
2018-04-15T02:34:08.722Z,38.13
2018-04-15T02:36:35.102Z,34.17
2018-04-15T02:39:01.523Z,38.20
2018-04-15T02:41:27.930Z,37.00
2018-04-15T02:43:54.311Z,37.73
2018-04-15T02:46:20.654Z,38.53
2018-04-15T02:48:47.001Z,39.63
2018-04-15T02:51:13.354Z,40.33
2018-04-15T02:53:39.718Z,40.07
2018-04-15T02:56:06.091Z,40.60
2018-04-15T02:58:32.428Z,40.57
2018-04-15T03:00:58.767Z,41.33
2018-04-15T03:03:25.108Z,44.53
2018-04-15T03:05:51.450Z,41.60
2018-04-15T03:08:17.786Z,41.57
2018-04-15T03:10:44.287Z,41.40
2018-04-15T03:13:10.617Z,43.27
2018-04-15T03:15:36.950Z,43.63
2018-04-15T03:18:03.297Z,42.60
2018-04-15T03:20:29.689Z,47.37
2018-04-15T03:22:56.099Z,45.07
2018-04-15T03:25:22.477Z,46.87
2018-04-15T03:27:48.840Z,46.23
2018-04-15T03:30:15.187Z,44.60
2018-04-15T03:32:41.541Z,46.37
2018-04-15T03:35:08.007Z,47.87
2018-04-15T03:37:34.367Z,47.50
2018-04-15T03:40:00.706Z,47.73
2018-04-15T03:42:27.057Z,50.40
2018-04-15T03:44:53.410Z,49.67
2018-04-15T03:47:19.766Z,49.33
2018-04-15T03:49:46.114Z,45.20
2018-04-15T03:52:12.458Z,47.10
2018-04-15T03:54:38.797Z,43.07
2018-04-15T03:57:05.130Z,44.00
2018-04-15T03:59:31.510Z,43.07
2018-04-15T04:01:57.869Z,42.67
2018-04-15T04:04:24.246Z,38.57
2018-04-15T04:06:50.603Z,37.93
2018-04-15T04:09:16.952Z,37.07
2018-04-15T04:11:43.279Z,38.23
2018-04-15T04:14:09.625Z,40.23
2018-04-15T04:16:35.966Z,40.67
2018-04-15T04:19:14.433Z,38.77
2018-04-15T04:21:52.873Z,36.23
2018-04-15T04:24:31.315Z,37.60
2018-04-15T04:27:00.154Z,36.30
2018-04-15T04:29:26.485Z,37.47
2018-04-15T04:31:52.845Z,38.03
2018-04-15T04:34:19.210Z,37.70
2018-04-15T04:36:45.557Z,38.67
2018-04-15T04:39:11.915Z,40.70
2018-04-15T04:41:38.273Z,41.70
2018-04-15T04:44:04.597Z,42.43
2018-04-15T04:46:30.955Z,41.13
2018-04-15T04:48:57.311Z,43.37
2018-04-15T04:51:23.665Z,43.83
2018-04-15T04:53:50.002Z,45.17
2018-04-15T04:56:16.354Z,44.70
2018-04-15T04:58:42.689Z,44.57
2018-04-15T05:01:09.035Z,45.87
2018-04-15T05:03:35.374Z,48.20
2018-04-15T05:06:01.694Z,49.83
2018-04-15T05:08:28.047Z,49.17
2018-04-15T05:10:54.395Z,50.73
2018-04-15T05:13:20.880Z,53.47
2018-04-15T05:15:47.225Z,52.10
2018-04-15T05:18:13.610Z,53.10
2018-04-15T05:20:39.945Z,46.33
2018-04-15T05:23:06.265Z,46.57
2018-04-15T05:25:32.622Z,44.43
2018-04-15T05:27:58.991Z,47.20
2018-04-15T05:30:25.653Z,43.53
2018-04-15T05:32:51.967Z,45.17
2018-04-15T05:35:18.313Z,41.47
2018-04-15T05:37:44.629Z,43.80
2018-04-15T05:40:10.998Z,36.43
2018-04-15T05:42:37.318Z,40.10
2018-04-15T05:45:03.687Z,39.23
2018-04-15T05:47:29.990Z,40.83
2018-04-15T05:49:56.322Z,41.03
2018-04-15T05:52:22.653Z,42.20
2018-04-15T05:54:48.969Z,41.90
2018-04-15T05:57:15.296Z,38.00
2018-04-15T05:59:41.798Z,41.03
2018-04-15T06:02:08.138Z,39.93
2018-04-15T06:04:34.471Z,39.90
2018-04-15T06:07:00.835Z,39.67
2018-04-15T06:09:27.186Z,40.30
2018-04-15T06:11:53.489Z,40.33
2018-04-15T06:14:19.800Z,42.77
2018-04-15T06:16:46.121Z,40.27
2018-04-15T06:19:12.454Z,43.33
2018-04-15T06:21:39.349Z,40.33
2018-04-15T06:24:05.809Z,36.93
2018-04-15T06:26:32.165Z,38.47
2018-04-15T06:28:58.486Z,39.37
2018-04-15T06:31:24.818Z,45.87
2018-04-15T06:33:51.171Z,40.33
2018-04-15T06:36:17.494Z,42.60
2018-04-15T06:38:43.829Z,41.57
2018-04-15T06:41:10.145Z,39.97
2018-04-15T06:43:36.468Z,38.83
2018-04-15T06:46:02.892Z,38.33
2018-04-15T06:48:29.216Z,38.10
2018-04-15T06:50:55.551Z,39.77
2018-04-15T06:53:21.853Z,38.00
2018-04-15T06:55:48.232Z,36.87
2018-04-15T06:58:14.544Z,36.67
2018-04-15T07:00:40.910Z,38.33
2018-04-15T07:03:07.366Z,34.90
2018-04-15T07:05:33.709Z,37.13
2018-04-15T07:08:00.038Z,34.30
2018-04-15T07:10:26.366Z,33.63
2018-04-15T07:12:53.002Z,33.80
2018-04-15T07:15:19.395Z,35.10
2018-04-15T07:17:45.726Z,34.30
2018-04-15T07:20:12.049Z,38.17
2018-04-15T07:22:38.369Z,34.20
2018-04-15T07:25:04.734Z,35.80
2018-04-15T07:27:31.198Z,32.70
2018-04-15T07:29:57.582Z,35.57
2018-04-15T07:32:23.914Z,33.90
2018-04-15T07:34:50.238Z,34.63
2018-04-15T07:37:16.562Z,34.67
2018-04-15T07:39:43.471Z,34.47
2018-04-15T07:42:09.867Z,34.73
2018-04-15T07:44:36.191Z,35.10
2018-04-15T07:47:02.592Z,37.00
2018-04-15T07:49:28.902Z,36.63
2018-04-15T07:51:55.236Z,37.80
2018-04-15T07:54:21.594Z,37.47
2018-04-15T07:56:47.931Z,38.77
2018-04-15T07:59:19.092Z,34.50
2018-04-15T08:01:47.036Z,33.70
2018-04-15T08:04:13.514Z,33.27
2018-04-15T08:06:39.853Z,32.83
2018-04-15T08:09:06.294Z,32.03
2018-04-15T08:11:32.699Z,30.83
2018-04-15T08:13:59.078Z,32.30
2018-04-15T08:16:25.690Z,30.30
2018-04-15T08:18:52.034Z,32.00
2018-04-15T08:21:18.386Z,32.80
2018-04-15T08:23:44.754Z,31.33
2018-04-15T08:26:11.086Z,32.40
2018-04-15T08:28:37.626Z,31.83
2018-04-15T08:31:04.007Z,33.60
2018-04-15T08:33:30.322Z,31.83
2018-04-15T08:35:56.669Z,32.17
2018-04-15T08:38:22.998Z,31.80
2018-04-15T08:40:49.317Z,32.00
2018-04-15T08:43:15.727Z,33.67
2018-04-15T08:45:42.044Z,32.90
2018-04-15T08:48:08.374Z,31.30
2018-04-15T08:50:34.715Z,30.97
2018-04-15T08:53:01.050Z,33.20
2018-04-15T08:55:27.382Z,29.80
2018-04-15T08:57:53.709Z,30.83
2018-04-15T09:00:20.106Z,31.07
2018-04-15T09:02:46.421Z,29.33
2018-04-15T09:05:12.763Z,28.67
2018-04-15T09:07:39.073Z,27.63
2018-04-15T09:10:05.390Z,29.97
2018-04-15T09:12:31.733Z,28.93
2018-04-15T09:14:58.045Z,30.30
2018-04-15T09:17:24.350Z,32.30
2018-04-15T09:19:50.689Z,31.53
2018-04-15T09:22:17.251Z,31.43
2018-04-15T09:24:43.762Z,29.97
2018-04-15T09:27:10.136Z,29.30
2018-04-15T09:29:36.539Z,29.33
2018-04-15T09:32:02.870Z,32.07
2018-04-15T09:34:29.187Z,29.40
2018-04-15T09:36:55.506Z,29.50
2018-04-15T09:39:21.841Z,28.93
2018-04-15T09:41:48.162Z,30.30
2018-04-15T09:44:14.681Z,28.27
2018-04-15T09:46:40.994Z,29.97
2018-04-15T09:49:07.317Z,28.47
2018-04-15T09:51:33.625Z,29.50
2018-04-15T09:53:59.936Z,28.93
2018-04-15T09:56:26.261Z,27.30
2018-04-15T09:58:52.573Z,26.23
2018-04-15T10:01:18.926Z,27.60
2018-04-15T10:03:45.246Z,27.03
2018-04-15T10:06:11.667Z,27.03
2018-04-15T10:08:38.061Z,26.13
2018-04-15T10:11:04.385Z,24.53
2018-04-15T10:13:30.730Z,25.50
2018-04-15T10:15:57.050Z,24.93
2018-04-15T10:18:23.413Z,24.60
2018-04-15T10:20:49.769Z,24.53
2018-04-15T10:23:16.095Z,22.70
2018-04-15T10:25:42.514Z,22.10
2018-04-15T10:28:08.840Z,22.10
2018-04-15T10:30:35.251Z,20.67
2018-04-15T10:33:01.801Z,22.27
2018-04-15T10:35:28.103Z,22.50
2018-04-15T10:37:54.430Z,21.03
2018-04-15T10:40:20.753Z,21.43
2018-04-15T10:42:47.082Z,21.07
2018-04-15T10:45:13.402Z,19.93
2018-04-15T10:47:39.741Z,21.27
2018-04-15T10:50:06.074Z,20.67
2018-04-15T10:52:32.398Z,19.37
2018-04-15T10:54:58.714Z,21.07
2018-04-15T10:57:25.039Z,21.13
2018-04-15T10:59:51.469Z,20.57
2018-04-15T11:02:17.760Z,20.77
2018-04-15T11:04:44.097Z,21.40
2018-04-15T11:07:10.420Z,20.57
2018-04-15T11:09:36.750Z,19.20
2018-04-15T11:12:03.103Z,20.77
2018-04-15T11:14:29.644Z,20.60
2018-04-15T11:16:55.994Z,20.57
2018-04-15T11:19:22.511Z,20.47
2018-04-15T11:21:48.870Z,20.27
2018-04-15T11:24:15.214Z,20.23
2018-04-15T11:26:41.529Z,20.63
2018-04-15T11:29:07.859Z,19.13
2018-04-15T11:31:34.202Z,19.33
2018-04-15T11:34:00.600Z,19.07
2018-04-15T11:36:26.930Z,19.80
2018-04-15T11:38:53.289Z,19.20
2018-04-15T11:41:19.638Z,18.90
2018-04-15T11:43:45.957Z,19.30
2018-04-15T11:46:12.282Z,19.43
2018-04-15T11:48:38.601Z,18.47
2018-04-15T11:51:04.942Z,18.40
2018-04-15T11:53:31.266Z,18.17
2018-04-15T11:55:57.681Z,19.50
2018-04-15T11:58:24.011Z,19.67
2018-04-15T12:00:50.348Z,19.67
2018-04-15T12:03:16.693Z,18.03
2018-04-15T12:05:43.033Z,19.03
2018-04-15T12:08:09.441Z,19.53
2018-04-15T12:10:35.764Z,18.93
2018-04-15T12:13:02.130Z,19.63
2018-04-15T12:15:28.533Z,19.20
2018-04-15T12:17:54.973Z,20.33
2018-04-15T12:20:21.310Z,18.97
2018-04-15T12:22:47.660Z,18.80
2018-04-15T12:25:14.018Z,18.37
2018-04-15T12:27:40.377Z,18.20
2018-04-15T12:30:06.766Z,19.63
2018-04-15T12:32:33.210Z,18.07
2018-04-15T12:34:59.696Z,17.60
2018-04-15T12:37:26.006Z,17.87
2018-04-15T12:39:52.333Z,18.97
2018-04-15T12:42:18.834Z,19.27
2018-04-15T12:44:45.156Z,19.50
2018-04-15T12:47:11.482Z,18.83
2018-04-15T12:49:37.805Z,17.50
2018-04-15T12:52:04.216Z,16.80
2018-04-15T12:54:30.525Z,17.20
2018-04-15T12:56:56.846Z,16.57
2018-04-15T12:59:23.173Z,16.97
2018-04-15T13:01:49.519Z,17.13
2018-04-15T13:04:15.875Z,16.17
2018-04-15T13:06:42.199Z,16.33
2018-04-15T13:09:08.567Z,16.53
2018-04-15T13:11:34.889Z,15.23
2018-04-15T13:14:01.221Z,15.77
2018-04-15T13:16:27.542Z,14.70
2018-04-15T13:18:53.881Z,14.57
2018-04-15T13:21:20.258Z,13.00
2018-04-15T13:23:46.828Z,13.53
2018-04-15T13:26:13.176Z,11.93
2018-04-15T13:28:39.544Z,11.57
2018-04-15T13:31:05.875Z,11.43
2018-04-15T13:33:32.229Z,11.43
2018-04-15T13:35:58.570Z,11.00
2018-04-15T13:38:24.919Z,12.03
2018-04-15T13:40:51.247Z,11.37
2018-04-15T13:43:17.513Z,11.30
2018-04-15T13:45:43.869Z,10.60
2018-04-15T13:48:10.257Z,11.77
2018-04-15T13:50:36.594Z,10.43
2018-04-15T13:53:02.926Z,11.10
2018-04-15T13:55:29.201Z,11.03
2018-04-15T13:57:55.540Z,11.30
2018-04-15T14:00:22.378Z,10.70
2018-04-15T14:02:49.531Z,10.60
2018-04-15T14:05:15.986Z,10.27
2018-04-15T14:07:42.329Z,10.47
2018-04-15T14:10:08.653Z,10.40
2018-04-15T14:12:34.990Z,10.93
2018-04-15T14:15:01.486Z,9.97
2018-04-15T14:17:27.755Z,10.27
2018-04-15T14:19:54.302Z,10.67
2018-04-15T14:22:20.681Z,10.37
2018-04-15T14:24:47.241Z,10.50
2018-04-15T14:27:13.623Z,10.40
2018-04-15T14:29:40.082Z,9.83
2018-04-15T14:32:06.409Z,9.43
2018-04-15T14:34:32.741Z,10.07
2018-04-15T14:36:59.078Z,10.63
2018-04-15T14:39:25.418Z,9.37
2018-04-15T14:41:51.758Z,8.67
2018-04-15T14:44:18.106Z,8.63
2018-04-15T14:46:44.422Z,9.10
2018-04-15T14:49:10.759Z,9.50
2018-04-15T14:51:37.099Z,9.80
2018-04-15T14:54:03.370Z,10.10
2018-04-15T14:56:30.176Z,11.43
2018-04-15T14:58:56.479Z,10.13
2018-04-15T15:01:22.802Z,11.17
2018-04-15T15:03:49.057Z,10.10
2018-04-15T15:06:15.389Z,9.40
2018-04-15T15:08:41.737Z,9.57
2018-04-15T15:11:08.089Z,9.37
2018-04-15T15:13:34.555Z,9.77
2018-04-15T15:16:00.851Z,10.40
2018-04-15T15:18:27.134Z,9.70
2018-04-15T15:20:53.410Z,9.37
2018-04-15T15:23:19.690Z,9.57
2018-04-15T15:25:45.990Z,9.43
2018-04-15T15:28:12.331Z,10.50
2018-04-15T15:30:38.600Z,10.43
2018-04-15T15:33:04.890Z,10.40
2018-04-15T15:35:31.178Z,10.00
2018-04-15T15:37:57.653Z,10.90
2018-04-15T15:40:23.984Z,10.80
2018-04-15T15:42:50.359Z,9.93
2018-04-15T15:45:17.505Z,10.80
2018-04-15T15:47:44.740Z,10.50
2018-04-15T15:50:11.058Z,10.77
2018-04-15T15:52:37.368Z,10.77
2018-04-15T15:55:03.641Z,10.53
2018-04-15T15:57:29.925Z,10.87
2018-04-15T15:59:56.373Z,10.67
2018-04-15T16:02:22.634Z,10.80
2018-04-15T16:04:48.899Z,10.70
2018-04-15T16:07:15.186Z,10.73
2018-04-15T16:09:41.450Z,10.23
2018-04-15T16:12:07.739Z,10.97
2018-04-15T16:14:34.021Z,11.50
2018-04-15T16:17:00.292Z,12.40
2018-04-15T16:19:26.542Z,13.03
2018-04-15T16:21:52.802Z,13.30
2018-04-15T16:24:19.105Z,13.07
2018-04-15T16:26:45.388Z,13.37
2018-04-15T16:29:11.679Z,12.83
2018-04-15T16:31:37.952Z,12.97
2018-04-15T16:34:04.282Z,12.87
2018-04-15T16:36:30.732Z,13.27
2018-04-15T16:38:57.105Z,12.10
2018-04-15T16:41:23.455Z,13.00
2018-04-15T16:43:49.742Z,12.33
2018-04-15T16:46:16.055Z,12.17
2018-04-15T16:48:42.334Z,12.43
2018-04-15T16:51:08.651Z,13.23
2018-04-15T16:53:34.941Z,13.23
2018-04-15T16:56:01.226Z,14.20
2018-04-15T16:58:27.760Z,14.10
2018-04-15T17:00:54.046Z,14.60
2018-04-15T17:03:20.330Z,15.30
2018-04-15T17:05:46.617Z,17.30
2018-04-15T17:08:13.019Z,14.77
2018-04-15T17:10:39.301Z,15.13
2018-04-15T17:13:05.732Z,14.73
2018-04-15T17:15:32.141Z,14.43
2018-04-15T17:17:58.429Z,14.30
2018-04-15T17:20:24.871Z,14.30
2018-04-15T17:22:51.178Z,12.47
2018-04-15T17:25:17.985Z,12.73
2018-04-15T17:27:44.320Z,12.77
2018-04-15T17:30:11.013Z,12.00
2018-04-15T17:32:37.369Z,12.73
2018-04-15T17:35:03.910Z,12.83
2018-04-15T17:37:30.185Z,12.70
2018-04-15T17:39:56.705Z,13.33
2018-04-15T17:42:23.001Z,12.17
2018-04-15T17:44:49.285Z,11.40
2018-04-15T17:47:15.578Z,12.13
2018-04-15T17:49:41.891Z,11.50
2018-04-15T17:52:08.210Z,11.27
2018-04-15T17:54:34.485Z,10.60
2018-04-15T17:57:00.770Z,10.47
2018-04-15T17:59:27.121Z,10.40
2018-04-15T18:01:53.480Z,9.77
2018-04-15T18:04:19.770Z,9.87
2018-04-15T18:06:46.254Z,10.77
2018-04-15T18:09:12.613Z,9.40
2018-04-15T18:11:39.010Z,10.33
2018-04-15T18:14:05.378Z,9.53
2018-04-15T18:16:32.490Z,8.97
2018-04-15T18:18:58.927Z,10.20
2018-04-15T18:21:25.226Z,8.50
2018-04-15T18:23:51.510Z,8.37
2018-04-15T18:26:17.800Z,9.00
2018-04-15T18:28:44.149Z,9.10
2018-04-15T18:31:10.476Z,8.77
2018-04-15T18:33:36.749Z,8.30
2018-04-15T18:36:03.345Z,8.43
2018-04-15T18:38:29.650Z,8.43
2018-04-15T18:40:56.006Z,8.40
2018-04-15T18:43:22.343Z,8.07
2018-04-15T18:45:48.637Z,8.13
2018-04-15T18:48:14.930Z,7.63
2018-04-15T18:50:41.300Z,8.20
2018-04-15T18:53:07.574Z,8.47
2018-04-15T18:55:33.939Z,8.60
2018-04-15T18:58:00.386Z,8.40
2018-04-15T19:00:26.681Z,8.90
2018-04-15T19:02:53.138Z,8.53
2018-04-15T19:05:19.449Z,8.77
2018-04-15T19:07:45.753Z,8.60
2018-04-15T19:10:12.057Z,8.10
2018-04-15T19:12:38.874Z,8.40
2018-04-15T19:15:05.170Z,8.47
2018-04-15T19:17:31.454Z,8.70
2018-04-15T19:19:57.761Z,8.70
2018-04-15T19:22:24.148Z,8.57
2018-04-15T19:24:50.432Z,7.83
2018-04-15T19:27:16.723Z,7.63
2018-04-15T19:29:43.158Z,8.33
2018-04-15T19:32:09.498Z,8.23
2018-04-15T19:34:35.853Z,7.80
2018-04-15T19:37:02.133Z,7.60
2018-04-15T19:39:28.417Z,8.20
2018-04-15T19:41:54.845Z,7.33
2018-04-15T19:44:21.174Z,7.63
2018-04-15T19:46:47.522Z,7.63
2018-04-15T19:49:13.806Z,7.10
2018-04-15T19:51:40.149Z,6.93
2018-04-15T19:54:06.531Z,6.57
2018-04-15T19:56:32.884Z,7.30
2018-04-15T19:58:59.149Z,7.33
2018-04-15T20:01:25.434Z,6.90
2018-04-15T20:03:51.710Z,6.23
2018-04-15T20:06:18.002Z,6.70
2018-04-15T20:08:44.279Z,6.70
2018-04-15T20:11:10.638Z,6.87
2018-04-15T20:13:36.875Z,6.70
2018-04-15T20:16:03.255Z,6.77
2018-04-15T20:18:29.596Z,7.03
2018-04-15T20:20:55.933Z,7.10
2018-04-15T20:23:22.246Z,7.00
2018-04-15T20:25:48.549Z,7.20
2018-04-15T20:28:14.847Z,7.00
2018-04-15T20:30:41.134Z,6.53
2018-04-15T20:33:07.407Z,6.63
2018-04-15T20:35:33.693Z,6.37
2018-04-15T20:37:59.972Z,6.07
2018-04-15T20:40:26.266Z,6.63
2018-04-15T20:42:52.535Z,5.60
2018-04-15T20:45:18.906Z,6.33
2018-04-15T20:47:45.194Z,6.20
2018-04-15T20:50:11.486Z,6.00
2018-04-15T20:52:37.766Z,5.63
2018-04-15T20:55:04.060Z,5.90
2018-04-15T20:57:30.339Z,5.87
2018-04-15T20:59:56.666Z,5.50
2018-04-15T21:02:22.952Z,5.20
2018-04-15T21:04:49.261Z,5.40
2018-04-15T21:07:15.597Z,5.30
2018-04-15T21:09:41.999Z,5.83
2018-04-15T21:12:08.481Z,5.87
2018-04-15T21:14:34.791Z,5.70
2018-04-15T21:17:01.074Z,5.10
2018-04-15T21:19:27.369Z,5.70
2018-04-15T21:21:53.675Z,4.90
2018-04-15T21:24:19.954Z,5.43
2018-04-15T21:26:46.266Z,5.33
2018-04-15T21:29:12.600Z,5.20
2018-04-15T21:31:38.914Z,5.90
2018-04-15T21:34:05.207Z,5.83
2018-04-15T21:36:31.539Z,5.80
2018-04-15T21:38:57.882Z,5.43
2018-04-15T21:41:24.198Z,5.53
2018-04-15T21:43:50.482Z,5.67
2018-04-15T21:46:16.745Z,6.53
2018-04-15T21:48:43.087Z,5.40
2018-04-15T21:51:09.367Z,6.47
2018-04-15T21:53:35.682Z,6.20
2018-04-15T21:56:01.968Z,6.97
2018-04-15T21:58:28.281Z,7.20
2018-04-15T22:00:54.710Z,6.03
2018-04-15T22:03:20.989Z,6.77
2018-04-15T22:05:47.330Z,6.03
2018-04-15T22:08:13.606Z,6.47
2018-04-15T22:10:39.903Z,6.77
2018-04-15T22:13:07.146Z,6.53
2018-04-15T22:15:33.430Z,6.97
2018-04-15T22:17:59.737Z,6.40
2018-04-15T22:20:26.029Z,6.30
2018-04-15T22:22:52.308Z,7.03
2018-04-15T22:25:18.590Z,6.70
2018-04-15T22:27:44.934Z,7.60
2018-04-15T22:30:11.235Z,6.83
2018-04-15T22:32:37.502Z,7.27
2018-04-15T22:35:03.853Z,7.07
2018-04-15T22:37:30.182Z,7.60
2018-04-15T22:39:56.459Z,7.30
2018-04-15T22:42:22.736Z,6.83
2018-04-15T22:44:49.022Z,7.30
2018-04-15T22:47:15.313Z,7.40
2018-04-15T22:49:42.420Z,7.90
2018-04-15T22:52:08.718Z,6.60
2018-04-15T22:54:34.999Z,7.90
2018-04-15T22:57:07.409Z,7.93
2018-04-15T22:59:33.690Z,7.73
2018-04-15T23:01:59.986Z,7.30
2018-04-15T23:04:26.354Z,7.70
2018-04-15T23:06:52.726Z,7.33
2018-04-15T23:09:19.061Z,7.50
2018-04-15T23:11:45.486Z,7.23
2018-04-15T23:14:11.843Z,7.30
2018-04-15T23:16:38.243Z,7.43
2018-04-15T23:19:04.579Z,7.43
2018-04-15T23:21:30.918Z,7.53
2018-04-15T23:23:57.251Z,7.90
2018-04-15T23:26:23.599Z,7.13
2018-04-15T23:28:49.971Z,7.30
2018-04-15T23:31:16.309Z,7.30
2018-04-15T23:33:42.654Z,6.67
2018-04-15T23:36:09.062Z,7.73
2018-04-15T23:38:35.410Z,7.33
2018-04-15T23:41:01.894Z,6.67
2018-04-15T23:43:28.223Z,7.53
2018-04-15T23:45:54.590Z,7.10
2018-04-15T23:48:20.939Z,7.27
2018-04-15T23:50:47.298Z,7.33
2018-04-15T23:53:13.654Z,7.10
2018-04-15T23:55:40.015Z,7.17
2018-04-15T23:58:06.365Z,6.93
